Aérodrome :
LOGIN :

S'inscrire | Disclaimer

   EN    FR    IT 

 










Légende :    VFR   VFR Marginal   IFR   IFR Intensif   IFR Très Intensif
Visi : 
Plafond : 
>= 8 km
>= 3000ft
5 à 8 km
1000 à 3000 ft
1500m à 5 km
500 à 1000 ft
800 à 1500m
200 à 500 ft
< 800m
< 200 ft
Symboles :   Orages  Brouillard  Fortes neiges  Fortes précipitations  Vent > 20 kt
SIGMETs :   Divers  Orages  Givrage  Turbulence  Onde Orograph.  Cendres Volcan.







- Altitude de l'aérodrome : 392 ft
- Code IATA : CDG
- Voir les cartes d'approche


LFPG - Paris-Aeroport Charles De Gaulle

METARs EXPIRÉS :
  • 241430Z 24009KT 190V280 CAVOK 24/11 Q1017 NOSIG
  • 241400Z 23012KT 210V310 CAVOK 24/11 Q1017 NOSIG
  • 241330Z 23011KT 190V260 CAVOK 24/11 Q1018 NOSIG
  • 241300Z 24011KT 210V270 CAVOK 24/10 Q1018 NOSIG
  • 241230Z 23013G24KT 210V320 CAVOK 23/11 Q1018 NOSIG
  • 241200Z 25011KT 220V290 9999 FEW046 BKN055 23/11 Q1018 NOSIG

Prévision TAF périmée.
ATIS : +33 1 48 62 10 92
Pas de NOTAMs connus pour ce terrain.



MET'MAP, la Météo Aéronautique d'un coup d'oeil ! - Copyright ORBIFLY Décembre 2007 - Disclaimer

ORBIFLY MET'MAP TEAM :

Programmation & Développement : Alexandra Zaïnal
Conception & Développement : Baudouin d'Aumeries
Co-Programmation & Développement : Marc-Olivier Méhu
Soutien technique & logistique : Manuel Goepfert

Contact : metmap@orbifly.com




SOURCES & CREDITS :

   NOAA